sensor_id;sensor_type;location;lat;lon;timestamp;temperature;humidity
66582;SHT31;53438;48.898;2.308;2023-03-03T00:02:18;5.56;68.17
66582;SHT31;53438;48.898;2.308;2023-03-03T00:04:44;5.49;68.29
66582;SHT31;53438;48.898;2.308;2023-03-03T00:07:10;5.31;68.97
66582;SHT31;53438;48.898;2.308;2023-03-03T00:09:36;5.28;68.99
66582;SHT31;53438;48.898;2.308;2023-03-03T00:12:17;5.45;68.35
66582;SHT31;53438;48.898;2.308;2023-03-03T00:14:44;5.49;68.11
66582;SHT31;53438;48.898;2.308;2023-03-03T00:17:22;5.27;68.50
66582;SHT31;53438;48.898;2.308;2023-03-03T00:19:49;5.30;68.63
66582;SHT31;53438;48.898;2.308;2023-03-03T00:22:35;5.42;68.47
66582;SHT31;53438;48.898;2.308;2023-03-03T00:27:52;5.20;68.74
66582;SHT31;53438;48.898;2.308;2023-03-03T00:30:26;5.30;68.78
66582;SHT31;53438;48.898;2.308;2023-03-03T00:32:54;5.38;68.46
66582;SHT31;53438;48.898;2.308;2023-03-03T00:35:31;5.39;68.49
66582;SHT31;53438;48.898;2.308;2023-03-03T00:38:09;5.27;68.71
66582;SHT31;53438;48.898;2.308;2023-03-03T00:40:36;5.21;69.06
66582;SHT31;53438;48.898;2.308;2023-03-03T00:43:21;5.27;69.01
66582;SHT31;53438;48.898;2.308;2023-03-03T00:45:55;5.34;68.87
66582;SHT31;53438;48.898;2.308;2023-03-03T00:48:40;5.25;69.16
66582;SHT31;53438;48.898;2.308;2023-03-03T00:51:30;5.13;69.64
66582;SHT31;53438;48.898;2.308;2023-03-03T00:53:56;5.10;69.54
66582;SHT31;53438;48.898;2.308;2023-03-03T00:56:23;5.18;69.42
66582;SHT31;53438;48.898;2.308;2023-03-03T00:58:49;5.18;69.51
66582;SHT31;53438;48.898;2.308;2023-03-03T04:02:34;3.70;76.28
66582;SHT31;53438;48.898;2.308;2023-03-03T04:05:00;3.83;75.78
66582;SHT31;53438;48.898;2.308;2023-03-03T04:07:25;3.78;76.00
66582;SHT31;53438;48.898;2.308;2023-03-03T04:09:51;3.84;75.77
66582;SHT31;53438;48.898;2.308;2023-03-03T04:12:17;3.90;75.53
66582;SHT31;53438;48.898;2.308;2023-03-03T04:14:42;3.93;75.66
66582;SHT31;53438;48.898;2.308;2023-03-03T04:17:14;3.86;75.94
66582;SHT31;53438;48.898;2.308;2023-03-03T04:19:40;3.81;75.92
66582;SHT31;53438;48.898;2.308;2023-03-03T04:22:05;3.63;76.62
66582;SHT31;53438;48.898;2.308;2023-03-03T04:24:31;3.66;76.64
66582;SHT31;53438;48.898;2.308;2023-03-03T04:26:56;3.64;77.07
66582;SHT31;53438;48.898;2.308;2023-03-03T04:29:21;3.70;76.62
66582;SHT31;53438;48.898;2.308;2023-03-03T04:31:47;3.62;77.14
66582;SHT31;53438;48.898;2.308;2023-03-03T04:34:12;3.73;76.93
66582;SHT31;53438;48.898;2.308;2023-03-03T04:36:38;3.86;76.30
66582;SHT31;53438;48.898;2.308;2023-03-03T04:39:03;3.84;76.76
66582;SHT31;53438;48.898;2.308;2023-03-03T04:41:28;3.77;76.92
66582;SHT31;53438;48.898;2.308;2023-03-03T04:43:54;3.88;76.97
66582;SHT31;53438;48.898;2.308;2023-03-03T04:46:19;3.94;76.68
66582;SHT31;53438;48.898;2.308;2023-03-03T04:48:44;3.78;76.97
66582;SHT31;53438;48.898;2.308;2023-03-03T04:51:10;3.77;77.65
66582;SHT31;53438;48.898;2.308;2023-03-03T04:53:37;3.74;77.75
66582;SHT31;53438;48.898;2.308;2023-03-03T04:56:02;3.83;77.60
66582;SHT31;53438;48.898;2.308;2023-03-03T04:58:29;3.67;78.17
66582;SHT31;53438;48.898;2.308;2023-03-03T05:00:55;3.81;77.91
66582;SHT31;53438;48.898;2.308;2023-03-03T05:03:21;3.95;77.22
66582;SHT31;53438;48.898;2.308;2023-03-03T05:05:47;3.62;77.89
66582;SHT31;53438;48.898;2.308;2023-03-03T05:08:13;3.69;78.32
66582;SHT31;53438;48.898;2.308;2023-03-03T05:10:39;3.59;78.84
66582;SHT31;53438;48.898;2.308;2023-03-03T05:13:04;3.60;78.51
66582;SHT31;53438;48.898;2.308;2023-03-03T05:15:30;3.60;78.68
66582;SHT31;53438;48.898;2.308;2023-03-03T05:17:56;3.62;78.76
66582;SHT31;53438;48.898;2.308;2023-03-03T05:20:24;3.64;78.48
66582;SHT31;53438;48.898;2.308;2023-03-03T05:22:50;3.64;78.50
66582;SHT31;53438;48.898;2.308;2023-03-03T05:25:18;3.66;78.37
66582;SHT31;53438;48.898;2.308;2023-03-03T05:27:43;3.67;78.45
66582;SHT31;53438;48.898;2.308;2023-03-03T05:30:10;3.73;78.24
66582;SHT31;53438;48.898;2.308;2023-03-03T05:32:36;3.66;78.33
66582;SHT31;53438;48.898;2.308;2023-03-03T05:35:02;3.63;78.26
66582;SHT31;53438;48.898;2.308;2023-03-03T05:37:27;3.67;78.33
66582;SHT31;53438;48.898;2.308;2023-03-03T05:39:53;3.40;79.07
66582;SHT31;53438;48.898;2.308;2023-03-03T05:42:19;3.40;79.16
66582;SHT31;53438;48.898;2.308;2023-03-03T05:44:46;3.47;79.11
66582;SHT31;53438;48.898;2.308;2023-03-03T05:47:11;3.64;78.44
66582;SHT31;53438;48.898;2.308;2023-03-03T05:49:37;3.55;78.69
66582;SHT31;53438;48.898;2.308;2023-03-03T05:52:03;3.56;78.63
66582;SHT31;53438;48.898;2.308;2023-03-03T05:54:28;3.53;78.54
66582;SHT31;53438;48.898;2.308;2023-03-03T05:56:53;3.52;78.57
66582;SHT31;53438;48.898;2.308;2023-03-03T05:59:21;3.46;78.69
66582;SHT31;53438;48.898;2.308;2023-03-03T06:01:47;3.50;78.66
66582;SHT31;53438;48.898;2.308;2023-03-03T06:04:12;3.40;78.88
66582;SHT31;53438;48.898;2.308;2023-03-03T06:06:37;3.47;78.90
66582;SHT31;53438;48.898;2.308;2023-03-03T06:09:03;3.37;79.26
66582;SHT31;53438;48.898;2.308;2023-03-03T06:11:28;3.46;78.91
66582;SHT31;53438;48.898;2.308;2023-03-03T06:13:54;3.53;78.71
66582;SHT31;53438;48.898;2.308;2023-03-03T06:16:19;3.55;78.57
66582;SHT31;53438;48.898;2.308;2023-03-03T06:18:45;3.55;78.71
66582;SHT31;53438;48.898;2.308;2023-03-03T06:21:11;3.40;78.95
66582;SHT31;53438;48.898;2.308;2023-03-03T06:23:37;3.37;79.00
66582;SHT31;53438;48.898;2.308;2023-03-03T06:26:04;3.37;79.17
66582;SHT31;53438;48.898;2.308;2023-03-03T06:28:29;3.29;79.17
66582;SHT31;53438;48.898;2.308;2023-03-03T06:30:55;3.42;78.90
66582;SHT31;53438;48.898;2.308;2023-03-03T06:33:21;3.37;79.11
66582;SHT31;53438;48.898;2.308;2023-03-03T06:35:51;3.37;79.04
66582;SHT31;53438;48.898;2.308;2023-03-03T06:38:16;3.13;80.09
66582;SHT31;53438;48.898;2.308;2023-03-03T06:40:42;3.20;80.03
66582;SHT31;53438;48.898;2.308;2023-03-03T06:43:07;3.19;80.19
66582;SHT31;53438;48.898;2.308;2023-03-03T06:45:33;3.22;80.10
66582;SHT31;53438;48.898;2.308;2023-03-03T06:47:59;3.37;79.67
66582;SHT31;53438;48.898;2.308;2023-03-03T06:50:24;3.29;79.57
66582;SHT31;53438;48.898;2.308;2023-03-03T06:52:54;3.29;79.53
66582;SHT31;53438;48.898;2.308;2023-03-03T06:55:23;3.18;80.17
66582;SHT31;53438;48.898;2.308;2023-03-03T06:57:48;3.27;79.56
66582;SHT31;53438;48.898;2.308;2023-03-03T07:02:46;3.18;79.93
66582;SHT31;53438;48.898;2.308;2023-03-03T07:05:16;3.13;80.20
66582;SHT31;53438;48.898;2.308;2023-03-03T07:07:42;3.05;80.66
66582;SHT31;53438;48.898;2.308;2023-03-03T07:10:25;2.94;80.76
66582;SHT31;53438;48.898;2.308;2023-03-03T07:12:51;3.05;80.80
66582;SHT31;53438;48.898;2.308;2023-03-03T07:15:22;3.11;80.59
66582;SHT31;53438;48.898;2.308;2023-03-03T07:17:51;3.12;80.37
66582;SHT31;53438;48.898;2.308;2023-03-03T07:20:22;3.20;79.96
66582;SHT31;53438;48.898;2.308;2023-03-03T07:22:48;3.12;80.23
66582;SHT31;53438;48.898;2.308;2023-03-03T07:25:21;3.20;79.96
66582;SHT31;53438;48.898;2.308;2023-03-03T07:27:52;2.97;80.65
66582;SHT31;53438;48.898;2.308;2023-03-03T07:30:24;3.02;80.73
66582;SHT31;53438;48.898;2.308;2023-03-03T07:32:52;2.99;81.04
66582;SHT31;53438;48.898;2.308;2023-03-03T07:35:42;3.05;80.56
66582;SHT31;53438;48.898;2.308;2023-03-03T07:38:24;2.95;80.69
66582;SHT31;53438;48.898;2.308;2023-03-03T07:40:55;3.01;80.43
66582;SHT31;53438;48.898;2.308;2023-03-03T07:43:37;3.19;80.34
66582;SHT31;53438;48.898;2.308;2023-03-03T07:48:37;2.80;81.22
66582;SHT31;53438;48.898;2.308;2023-03-03T07:51:11;3.04;80.75
66582;SHT31;53438;48.898;2.308;2023-03-03T07:53:37;3.05;80.81
66582;SHT31;53438;48.898;2.308;2023-03-03T07:56:14;3.08;80.23
66582;SHT31;53438;48.898;2.308;2023-03-03T07:58:41;2.92;80.57
66582;SHT31;53438;48.898;2.308;2023-03-03T08:01:40;3.12;80.33
66582;SHT31;53438;48.898;2.308;2023-03-03T08:04:16;3.05;80.55
66582;SHT31;53438;48.898;2.308;2023-03-03T08:06:47;3.06;80.59
66582;SHT31;53438;48.898;2.308;2023-03-03T08:11:54;3.18;80.34
66582;SHT31;53438;48.898;2.308;2023-03-03T08:14:33;3.13;80.23
66582;SHT31;53438;48.898;2.308;2023-03-03T08:17:01;3.26;79.98
66582;SHT31;53438;48.898;2.308;2023-03-03T08:19:28;3.19;80.16
66582;SHT31;53438;48.898;2.308;2023-03-03T08:22:08;3.20;80.16
66582;SHT31;53438;48.898;2.308;2023-03-03T08:24:36;3.32;79.98
66582;SHT31;53438;48.898;2.308;2023-03-03T08:27:01;3.35;79.58
66582;SHT31;53438;48.898;2.308;2023-03-03T08:29:26;3.29;79.59
66582;SHT31;53438;48.898;2.308;2023-03-03T08:31:52;3.33;79.46
66582;SHT31;53438;48.898;2.308;2023-03-03T08:34:17;3.46;78.90
66582;SHT31;53438;48.898;2.308;2023-03-03T08:36:42;3.29;79.01
66582;SHT31;53438;48.898;2.308;2023-03-03T08:39:08;3.30;79.22
66582;SHT31;53438;48.898;2.308;2023-03-03T08:41:34;3.36;79.14
66582;SHT31;53438;48.898;2.308;2023-03-03T08:43:59;3.43;79.06
66582;SHT31;53438;48.898;2.308;2023-03-03T08:46:25;3.43;78.85
66582;SHT31;53438;48.898;2.308;2023-03-03T08:48:50;3.20;79.40
66582;SHT31;53438;48.898;2.308;2023-03-03T08:51:16;3.25;79.53
66582;SHT31;53438;48.898;2.308;2023-03-03T08:53:42;3.12;79.66
66582;SHT31;53438;48.898;2.308;2023-03-03T08:56:07;3.20;79.76
66582;SHT31;53438;48.898;2.308;2023-03-03T08:58:34;3.13;79.79
66582;SHT31;53438;48.898;2.308;2023-03-03T09:00:59;3.18;79.40
66582;SHT31;53438;48.898;2.308;2023-03-03T09:03:25;3.30;79.41
66582;SHT31;53438;48.898;2.308;2023-03-03T09:05:50;3.19;79.55
66582;SHT31;53438;48.898;2.308;2023-03-03T09:08:17;3.26;79.29
66582;SHT31;53438;48.898;2.308;2023-03-03T09:10:44;3.19;79.05
66582;SHT31;53438;48.898;2.308;2023-03-03T09:13:17;3.29;79.25
66582;SHT31;53438;48.898;2.308;2023-03-03T09:15:46;3.23;79.27
66582;SHT31;53438;48.898;2.308;2023-03-03T09:18:21;3.43;79.10
66582;SHT31;53438;48.898;2.308;2023-03-03T09:20:54;3.19;79.25
66582;SHT31;53438;48.898;2.308;2023-03-03T09:23:34;3.50;78.93
66582;SHT31;53438;48.898;2.308;2023-03-03T09:31:48;3.39;78.41
66582;SHT31;53438;48.898;2.308;2023-03-03T09:36:46;3.60;78.33
66582;SHT31;53438;48.898;2.308;2023-03-03T09:39:17;3.87;77.81
66582;SHT31;53438;48.898;2.308;2023-03-03T09:44:59;4.07;75.59
66582;SHT31;53438;48.898;2.308;2023-03-03T09:47:54;4.25;74.76
66582;SHT31;53438;48.898;2.308;2023-03-03T09:53:53;4.29;73.84
66582;SHT31;53438;48.898;2.308;2023-03-03T09:56:29;4.26;73.79
66582;SHT31;53438;48.898;2.308;2023-03-03T10:01:52;4.45;73.39
66582;SHT31;53438;48.898;2.308;2023-03-03T10:10:16;4.70;72.87
66582;SHT31;53438;48.898;2.308;2023-03-03T10:16:13;4.93;71.99
66582;SHT31;53438;48.898;2.308;2023-03-03T10:21:38;4.97;71.55
66582;SHT31;53438;48.898;2.308;2023-03-03T10:27:13;5.17;70.60
66582;SHT31;53438;48.898;2.308;2023-03-03T10:32:45;5.30;70.50
66582;SHT31;53438;48.898;2.308;2023-03-03T10:35:38;5.39;69.89
66582;SHT31;53438;48.898;2.308;2023-03-03T10:57:32;5.56;69.01
66582;SHT31;53438;48.898;2.308;2023-03-03T11:05:42;5.96;67.72
66582;SHT31;53438;48.898;2.308;2023-03-03T11:08:16;5.97;67.26
66582;SHT31;53438;48.898;2.308;2023-03-03T11:10:53;6.07;67.36
66582;SHT31;53438;48.898;2.308;2023-03-03T11:18:53;6.28;66.39
66582;SHT31;53438;48.898;2.308;2023-03-03T11:21:50;6.74;65.37
66582;SHT31;53438;48.898;2.308;2023-03-03T11:35:26;6.72;64.59
66582;SHT31;53438;48.898;2.308;2023-03-03T11:38:23;6.75;64.34
66582;SHT31;53438;48.898;2.308;2023-03-03T11:41:03;6.81;64.19
66582;SHT31;53438;48.898;2.308;2023-03-03T11:43:46;6.86;63.96
66582;SHT31;53438;48.898;2.308;2023-03-03T11:46:21;6.91;63.16
66582;SHT31;53438;48.898;2.308;2023-03-03T11:48:59;7.12;63.09
66582;SHT31;53438;48.898;2.308;2023-03-03T11:54:00;7.26;61.96
66582;SHT31;53438;48.898;2.308;2023-03-03T11:56:43;7.22;62.33
66582;SHT31;53438;48.898;2.308;2023-03-03T12:04:14;7.38;61.53
66582;SHT31;53438;48.898;2.308;2023-03-03T12:06:57;7.42;61.52
66582;SHT31;53438;48.898;2.308;2023-03-03T12:10:31;7.57;61.08
66582;SHT31;53438;48.898;2.308;2023-03-03T12:12:41;7.58;60.97
66582;SHT31;53438;48.898;2.308;2023-03-03T12:15:18;7.63;61.04
66582;SHT31;53438;48.898;2.308;2023-03-03T12:17:57;7.73;60.36
66582;SHT31;53438;48.898;2.308;2023-03-03T12:28:53;7.98;59.38
66582;SHT31;53438;48.898;2.308;2023-03-03T12:31:40;8.03;59.05
66582;SHT31;53438;48.898;2.308;2023-03-03T12:37:19;8.28;57.82
66582;SHT31;53438;48.898;2.308;2023-03-03T12:40:06;8.46;57.28
66582;SHT31;53438;48.898;2.308;2023-03-03T12:48:08;8.46;56.70
66582;SHT31;53438;48.898;2.308;2023-03-03T12:56:37;8.60;55.97
66582;SHT31;53438;48.898;2.308;2023-03-03T13:05:09;8.68;55.25
66582;SHT31;53438;48.898;2.308;2023-03-03T13:07:44;8.80;55.48
66582;SHT31;53438;48.898;2.308;2023-03-03T13:10:25;8.91;55.26
66582;SHT31;53438;48.898;2.308;2023-03-03T13:16:01;8.94;54.91
66582;SHT31;53438;48.898;2.308;2023-03-03T13:29:02;9.34;54.48
66582;SHT31;53438;48.898;2.308;2023-03-03T13:31:32;9.29;54.32
66582;SHT31;53438;48.898;2.308;2023-03-03T13:35:05;9.34;54.14
66582;SHT31;53438;48.898;2.308;2023-03-03T13:37:26;9.31;54.06
66582;SHT31;53438;48.898;2.308;2023-03-03T13:40:27;9.45;53.81
66582;SHT31;53438;48.898;2.308;2023-03-03T13:43:07;9.39;53.62
66582;SHT31;53438;48.898;2.308;2023-03-03T13:45:43;9.47;53.80
66582;SHT31;53438;48.898;2.308;2023-03-03T13:54:03;9.66;52.65
66582;SHT31;53438;48.898;2.308;2023-03-03T13:59:39;9.59;52.52
66582;SHT31;53438;48.898;2.308;2023-03-03T14:05:14;9.52;52.75
66582;SHT31;53438;48.898;2.308;2023-03-03T14:07:48;9.62;52.43
66582;SHT31;53438;48.898;2.308;2023-03-03T14:12:53;9.50;52.83
66582;SHT31;53438;48.898;2.308;2023-03-03T14:15:33;9.65;52.92
66582;SHT31;53438;48.898;2.308;2023-03-03T14:21:28;9.52;52.70
66582;SHT31;53438;48.898;2.308;2023-03-03T14:23:54;9.63;52.51
66582;SHT31;53438;48.898;2.308;2023-03-03T14:26:23;9.62;52.62
66582;SHT31;53438;48.898;2.308;2023-03-03T14:28:50;9.56;52.61
66582;SHT31;53438;48.898;2.308;2023-03-03T14:36:50;9.59;53.42
66582;SHT31;53438;48.898;2.308;2023-03-03T14:39:58;9.56;53.61
66582;SHT31;53438;48.898;2.308;2023-03-03T14:42:46;9.53;53.23
66582;SHT31;53438;48.898;2.308;2023-03-03T14:45:28;9.52;53.22
66582;SHT31;53438;48.898;2.308;2023-03-03T14:47:56;9.50;52.99
66582;SHT31;53438;48.898;2.308;2023-03-03T14:55:52;9.36;52.29
66582;SHT31;53438;48.898;2.308;2023-03-03T14:58:40;9.31;52.47
66582;SHT31;53438;48.898;2.308;2023-03-03T15:01:29;9.35;52.62
66582;SHT31;53438;48.898;2.308;2023-03-03T15:04:10;9.29;52.36
66582;SHT31;53438;48.898;2.308;2023-03-03T15:06:49;9.26;52.98
66582;SHT31;53438;48.898;2.308;2023-03-03T15:09:33;9.28;52.38
66582;SHT31;53438;48.898;2.308;2023-03-03T15:12:22;9.25;52.55
66582;SHT31;53438;48.898;2.308;2023-03-03T15:15:03;9.29;52.91
66582;SHT31;53438;48.898;2.308;2023-03-03T15:17:36;9.22;53.43
66582;SHT31;53438;48.898;2.308;2023-03-03T15:20:17;9.24;53.29
66582;SHT31;53438;48.898;2.308;2023-03-03T15:22:58;9.21;53.73
66582;SHT31;53438;48.898;2.308;2023-03-03T15:28:24;9.24;53.84
66582;SHT31;53438;48.898;2.308;2023-03-03T15:34:14;9.18;54.34
66582;SHT31;53438;48.898;2.308;2023-03-03T15:39:34;9.22;54.93
66582;SHT31;53438;48.898;2.308;2023-03-03T15:42:13;9.10;55.69
66582;SHT31;53438;48.898;2.308;2023-03-03T15:45:09;9.07;56.10
66582;SHT31;53438;48.898;2.308;2023-03-03T15:56:13;8.97;57.04
66582;SHT31;53438;48.898;2.308;2023-03-03T15:59:22;8.91;57.08
66582;SHT31;53438;48.898;2.308;2023-03-03T16:01:55;8.89;57.26
66582;SHT31;53438;48.898;2.308;2023-03-03T16:04:27;8.91;57.26
66582;SHT31;53438;48.898;2.308;2023-03-03T16:09:40;8.89;57.81
66582;SHT31;53438;48.898;2.308;2023-03-03T16:20:21;8.63;58.63
66582;SHT31;53438;48.898;2.308;2023-03-03T16:28:02;8.56;59.01
66582;SHT31;53438;48.898;2.308;2023-03-03T16:30:33;8.42;58.92
66582;SHT31;53438;48.898;2.308;2023-03-03T16:33:18;8.36;59.21
66582;SHT31;53438;48.898;2.308;2023-03-03T16:36:12;8.15;59.02
66582;SHT31;53438;48.898;2.308;2023-03-03T16:38:46;8.15;59.08
66582;SHT31;53438;48.898;2.308;2023-03-03T16:41:37;8.05;58.73
66582;SHT31;53438;48.898;2.308;2023-03-03T16:44:21;7.98;59.10
66582;SHT31;53438;48.898;2.308;2023-03-03T16:47:01;7.87;59.57
66582;SHT31;53438;48.898;2.308;2023-03-03T16:52:36;7.75;60.35
66582;SHT31;53438;48.898;2.308;2023-03-03T16:55:19;7.74;60.35
66582;SHT31;53438;48.898;2.308;2023-03-03T17:00:55;7.68;60.18
66582;SHT31;53438;48.898;2.308;2023-03-03T17:03:37;7.56;60.50
66582;SHT31;53438;48.898;2.308;2023-03-03T17:06:28;7.47;60.98
66582;SHT31;53438;48.898;2.308;2023-03-03T17:09:12;7.47;61.01
66582;SHT31;53438;48.898;2.308;2023-03-03T17:16:59;7.24;62.20
66582;SHT31;53438;48.898;2.308;2023-03-03T17:19:43;7.07;62.55
66582;SHT31;53438;48.898;2.308;2023-03-03T17:25:19;7.06;62.78
66582;SHT31;53438;48.898;2.308;2023-03-03T17:44:49;6.79;63.49
66582;SHT31;53438;48.898;2.308;2023-03-03T17:56:20;6.76;63.62
66582;SHT31;53438;48.898;2.308;2023-03-03T18:01:02;6.69;63.77
66582;SHT31;53438;48.898;2.308;2023-03-03T18:22:50;6.41;65.39
66582;SHT31;53438;48.898;2.308;2023-03-03T18:25:55;6.48;65.28
66582;SHT31;53438;48.898;2.308;2023-03-03T18:28:46;6.36;65.57
66582;SHT31;53438;48.898;2.308;2023-03-03T18:31:43;6.21;66.23
66582;SHT31;53438;48.898;2.308;2023-03-03T18:36:55;6.30;66.16
66582;SHT31;53438;48.898;2.308;2023-03-03T18:39:36;6.23;66.37
66582;SHT31;53438;48.898;2.308;2023-03-03T18:44:44;6.18;66.52
66582;SHT31;53438;48.898;2.308;2023-03-03T18:47:12;6.21;66.57
66582;SHT31;53438;48.898;2.308;2023-03-03T18:52:22;6.27;66.66
66582;SHT31;53438;48.898;2.308;2023-03-03T18:57:34;6.17;66.96
66582;SHT31;53438;48.898;2.308;2023-03-03T19:00:23;6.13;67.27
66582;SHT31;53438;48.898;2.308;2023-03-03T19:02:56;6.20;67.01
66582;SHT31;53438;48.898;2.308;2023-03-03T19:07:57;6.14;66.83
66582;SHT31;53438;48.898;2.308;2023-03-03T19:23:51;6.11;67.29
66582;SHT31;53438;48.898;2.308;2023-03-03T19:35:17;5.96;67.70
66582;SHT31;53438;48.898;2.308;2023-03-03T19:41:02;5.63;68.87
66582;SHT31;53438;48.898;2.308;2023-03-03T19:43:56;5.76;68.56
66582;SHT31;53438;48.898;2.308;2023-03-03T19:54:56;5.82;68.19
66582;SHT31;53438;48.898;2.308;2023-03-03T20:01:00;5.66;68.76
66582;SHT31;53438;48.898;2.308;2023-03-03T20:03:48;5.68;68.79
66582;SHT31;53438;48.898;2.308;2023-03-03T20:14:39;5.60;69.09
66582;SHT31;53438;48.898;2.308;2023-03-03T20:17:35;5.59;68.96
66582;SHT31;53438;48.898;2.308;2023-03-03T20:34:27;5.60;69.22
66582;SHT31;53438;48.898;2.308;2023-03-03T20:36:51;5.69;68.58
66582;SHT31;53438;48.898;2.308;2023-03-03T20:41:59;5.58;69.14
66582;SHT31;53438;48.898;2.308;2023-03-03T20:44:43;5.44;69.55
66582;SHT31;53438;48.898;2.308;2023-03-03T20:55:18;5.23;70.13
66582;SHT31;53438;48.898;2.308;2023-03-03T20:58:06;5.23;70.30
66582;SHT31;53438;48.898;2.308;2023-03-03T21:00:57;5.24;70.18
66582;SHT31;53438;48.898;2.308;2023-03-03T21:06:05;5.44;69.51
66582;SHT31;53438;48.898;2.308;2023-03-03T21:08:40;5.20;70.44
66582;SHT31;53438;48.898;2.308;2023-03-03T21:11:05;5.17;70.36
66582;SHT31;53438;48.898;2.308;2023-03-03T21:13:49;5.24;70.19
66582;SHT31;53438;48.898;2.308;2023-03-03T21:21:28;5.03;70.86
66582;SHT31;53438;48.898;2.308;2023-03-03T21:23:55;5.03;70.95
66582;SHT31;53438;48.898;2.308;2023-03-03T21:26:46;4.98;71.01
66582;SHT31;53438;48.898;2.308;2023-03-03T21:29:18;4.83;71.52
66582;SHT31;53438;48.898;2.308;2023-03-03T21:31:45;4.91;71.57
66582;SHT31;53438;48.898;2.308;2023-03-03T21:34:38;4.88;71.68
66582;SHT31;53438;48.898;2.308;2023-03-03T21:37:06;4.86;71.72
66582;SHT31;53438;48.898;2.308;2023-03-03T21:42:13;4.91;71.66
66582;SHT31;53438;48.898;2.308;2023-03-03T21:44:42;4.94;71.37
66582;SHT31;53438;48.898;2.308;2023-03-03T21:47:11;4.72;71.86
66582;SHT31;53438;48.898;2.308;2023-03-03T21:49:42;4.80;72.00
66582;SHT31;53438;48.898;2.308;2023-03-03T21:52:08;4.73;72.21
66582;SHT31;53438;48.898;2.308;2023-03-03T21:54:34;4.83;71.96
66582;SHT31;53438;48.898;2.308;2023-03-03T21:56:59;4.87;71.63
66582;SHT31;53438;48.898;2.308;2023-03-03T21:59:25;4.81;71.92
66582;SHT31;53438;48.898;2.308;2023-03-03T22:01:50;4.75;71.75
66582;SHT31;53438;48.898;2.308;2023-03-03T22:04:16;4.83;71.90
66582;SHT31;53438;48.898;2.308;2023-03-03T22:06:41;4.67;72.46
66582;SHT31;53438;48.898;2.308;2023-03-03T22:09:07;4.79;72.20
66582;SHT31;53438;48.898;2.308;2023-03-03T22:11:32;4.87;71.76
66582;SHT31;53438;48.898;2.308;2023-03-03T22:14:00;4.69;72.46
66582;SHT31;53438;48.898;2.308;2023-03-03T22:16:25;4.67;72.37
66582;SHT31;53438;48.898;2.308;2023-03-03T22:18:50;4.59;72.78
66582;SHT31;53438;48.898;2.308;2023-03-03T22:21:16;4.67;72.65
66582;SHT31;53438;48.898;2.308;2023-03-03T22:23:41;4.72;72.60
66582;SHT31;53438;48.898;2.308;2023-03-03T22:26:06;4.57;72.79
66582;SHT31;53438;48.898;2.308;2023-03-03T22:28:32;4.50;72.94
66582;SHT31;53438;48.898;2.308;2023-03-03T22:30:58;4.56;72.99
66582;SHT31;53438;48.898;2.308;2023-03-03T22:33:24;4.50;73.14
66582;SHT31;53438;48.898;2.308;2023-03-03T22:35:49;4.45;73.45
66582;SHT31;53438;48.898;2.308;2023-03-03T22:38:15;4.44;73.55
66582;SHT31;53438;48.898;2.308;2023-03-03T22:40:41;4.39;73.96
66582;SHT31;53438;48.898;2.308;2023-03-03T22:43:07;4.42;73.70
66582;SHT31;53438;48.898;2.308;2023-03-03T22:45:35;4.46;73.63
66582;SHT31;53438;48.898;2.308;2023-03-03T22:48:00;4.35;73.85
66582;SHT31;53438;48.898;2.308;2023-03-03T22:50:26;4.32;73.77
66582;SHT31;53438;48.898;2.308;2023-03-03T22:52:51;4.49;73.57
66582;SHT31;53438;48.898;2.308;2023-03-03T22:55:17;4.50;73.58
66582;SHT31;53438;48.898;2.308;2023-03-03T22:57:43;4.44;73.77
66582;SHT31;53438;48.898;2.308;2023-03-03T23:00:10;4.34;73.93
66582;SHT31;53438;48.898;2.308;2023-03-03T23:02:36;4.34;73.94
66582;SHT31;53438;48.898;2.308;2023-03-03T23:05:02;4.31;74.13
66582;SHT31;53438;48.898;2.308;2023-03-03T23:07:35;4.24;74.39
66582;SHT31;53438;48.898;2.308;2023-03-03T23:10:01;4.15;74.65
66582;SHT31;53438;48.898;2.308;2023-03-03T23:12:26;4.21;74.39
66582;SHT31;53438;48.898;2.308;2023-03-03T23:14:51;4.11;74.87
66582;SHT31;53438;48.898;2.308;2023-03-03T23:17:17;4.15;74.77
66582;SHT31;53438;48.898;2.308;2023-03-03T23:19:42;4.11;74.80
66582;SHT31;53438;48.898;2.308;2023-03-03T23:22:11;4.17;74.74
66582;SHT31;53438;48.898;2.308;2023-03-03T23:24:37;4.07;75.09
66582;SHT31;53438;48.898;2.308;2023-03-03T23:27:02;4.05;74.98
66582;SHT31;53438;48.898;2.308;2023-03-03T23:29:28;4.08;75.13
66582;SHT31;53438;48.898;2.308;2023-03-03T23:31:54;4.05;75.16
66582;SHT31;53438;48.898;2.308;2023-03-03T23:34:20;3.99;75.26
66582;SHT31;53438;48.898;2.308;2023-03-03T23:36:45;3.94;75.31
66582;SHT31;53438;48.898;2.308;2023-03-03T23:39:10;3.90;75.58
66582;SHT31;53438;48.898;2.308;2023-03-03T23:44:12;4.02;75.21
66582;SHT31;53438;48.898;2.308;2023-03-03T23:46:38;4.11;74.63
66582;SHT31;53438;48.898;2.308;2023-03-03T23:49:05;4.02;75.20
66582;SHT31;53438;48.898;2.308;2023-03-03T23:51:30;4.21;74.21
66582;SHT31;53438;48.898;2.308;2023-03-03T23:53:56;4.31;74.02
66582;SHT31;53438;48.898;2.308;2023-03-03T23:56:21;4.24;74.26
66582;SHT31;53438;48.898;2.308;2023-03-03T23:58:46;4.22;74.42
